sensor_id;sensor_type;location;lat;lon;timestamp;temperature;humidity
18229;DHT22;9239;50.932;3.142;2022-12-13T00:00:21;-2.40;99.90
18229;DHT22;9239;50.932;3.142;2022-12-13T00:02:48;-2.40;99.90
18229;DHT22;9239;50.932;3.142;2022-12-13T00:05:15;-2.40;99.90
18229;DHT22;9239;50.932;3.142;2022-12-13T00:07:42;-2.40;99.90
18229;DHT22;9239;50.932;3.142;2022-12-13T00:10:10;-2.40;99.90
18229;DHT22;9239;50.932;3.142;2022-12-13T00:12:37;-2.40;99.90
18229;DHT22;9239;50.932;3.142;2022-12-13T00:15:05;-2.50;99.90
18229;DHT22;9239;50.932;3.142;2022-12-13T00:17:32;-2.40;99.90
18229;DHT22;9239;50.932;3.142;2022-12-13T00:19:59;-2.50;99.90
18229;DHT22;9239;50.932;3.142;2022-12-13T00:22:26;-2.50;99.90
18229;DHT22;9239;50.932;3.142;2022-12-13T00:24:53;-2.50;99.90
18229;DHT22;9239;50.932;3.142;2022-12-13T00:27:22;-2.50;99.90
18229;DHT22;9239;50.932;3.142;2022-12-13T00:29:49;-2.50;99.90
18229;DHT22;9239;50.932;3.142;2022-12-13T00:32:16;-2.60;99.90
18229;DHT22;9239;50.932;3.142;2022-12-13T00:34:43;-2.60;99.90
18229;DHT22;9239;50.932;3.142;2022-12-13T00:37:10;-2.60;99.90
18229;DHT22;9239;50.932;3.142;2022-12-13T00:39:36;-2.60;99.90
18229;DHT22;9239;50.932;3.142;2022-12-13T00:42:04;-2.50;99.90
18229;DHT22;9239;50.932;3.142;2022-12-13T00:44:32;-2.50;99.90
18229;DHT22;9239;50.932;3.142;2022-12-13T00:46:59;-2.60;99.90
18229;DHT22;9239;50.932;3.142;2022-12-13T00:49:26;-2.60;99.90
18229;DHT22;9239;50.932;3.142;2022-12-13T00:51:53;-2.70;99.90
18229;DHT22;9239;50.932;3.142;2022-12-13T00:54:20;-2.70;99.90
18229;DHT22;9239;50.932;3.142;2022-12-13T00:56:47;-2.70;99.90
18229;DHT22;9239;50.932;3.142;2022-12-13T00:59:16;-2.80;99.90
18229;DHT22;9239;50.932;3.142;2022-12-13T01:01:44;-2.80;99.90
18229;DHT22;9239;50.932;3.142;2022-12-13T01:04:11;-2.90;99.90
18229;DHT22;9239;50.932;3.142;2022-12-13T01:06:39;-2.90;99.90
18229;DHT22;9239;50.932;3.142;2022-12-13T01:09:09;-2.80;99.90
18229;DHT22;9239;50.932;3.142;2022-12-13T01:11:37;-2.80;99.90
18229;DHT22;9239;50.932;3.142;2022-12-13T01:14:04;-2.80;99.90
18229;DHT22;9239;50.932;3.142;2022-12-13T01:16:31;-2.80;99.90
18229;DHT22;9239;50.932;3.142;2022-12-13T01:18:59;-2.90;99.90
18229;DHT22;9239;50.932;3.142;2022-12-13T01:21:26;-2.90;99.90
18229;DHT22;9239;50.932;3.142;2022-12-13T01:23:53;-2.90;99.90
18229;DHT22;9239;50.932;3.142;2022-12-13T01:26:21;-2.90;99.90
18229;DHT22;9239;50.932;3.142;2022-12-13T01:28:48;-3.00;99.90
18229;DHT22;9239;50.932;3.142;2022-12-13T01:31:17;-3.00;99.90
18229;DHT22;9239;50.932;3.142;2022-12-13T01:33:45;-3.00;99.90
18229;DHT22;9239;50.932;3.142;2022-12-13T01:36:16;-3.00;99.90
18229;DHT22;9239;50.932;3.142;2022-12-13T01:38:43;-3.00;99.90
18229;DHT22;9239;50.932;3.142;2022-12-13T01:41:12;-3.10;99.90
18229;DHT22;9239;50.932;3.142;2022-12-13T01:43:54;-3.10;99.90
18229;DHT22;9239;50.932;3.142;2022-12-13T01:46:22;-3.10;99.90
18229;DHT22;9239;50.932;3.142;2022-12-13T01:48:54;-3.10;99.90
18229;DHT22;9239;50.932;3.142;2022-12-13T01:51:27;-3.10;99.90
18229;DHT22;9239;50.932;3.142;2022-12-13T01:53:58;-3.00;99.90
18229;DHT22;9239;50.932;3.142;2022-12-13T01:56:30;-3.00;99.90
18229;DHT22;9239;50.932;3.142;2022-12-13T01:58:59;-3.00;99.90
18229;DHT22;9239;50.932;3.142;2022-12-13T02:01:27;-2.90;99.90
18229;DHT22;9239;50.932;3.142;2022-12-13T02:03:54;-3.00;99.90
18229;DHT22;9239;50.932;3.142;2022-12-13T02:06:28;-2.90;99.90
18229;DHT22;9239;50.932;3.142;2022-12-13T02:08:56;-2.90;99.90
18229;DHT22;9239;50.932;3.142;2022-12-13T02:11:24;-2.90;99.90
18229;DHT22;9239;50.932;3.142;2022-12-13T02:13:52;-2.90;99.90
18229;DHT22;9239;50.932;3.142;2022-12-13T02:16:29;-2.90;99.90
18229;DHT22;9239;50.932;3.142;2022-12-13T02:19:29;-2.90;99.90
18229;DHT22;9239;50.932;3.142;2022-12-13T02:22:12;-2.90;99.90
18229;DHT22;9239;50.932;3.142;2022-12-13T02:25:00;-2.90;99.90
18229;DHT22;9239;50.932;3.142;2022-12-13T02:27:42;-3.00;99.90
18229;DHT22;9239;50.932;3.142;2022-12-13T02:30:23;-2.90;99.90
18229;DHT22;9239;50.932;3.142;2022-12-13T02:33:22;-2.90;99.90
18229;DHT22;9239;50.932;3.142;2022-12-13T02:35:54;-3.00;99.90
18229;DHT22;9239;50.932;3.142;2022-12-13T02:38:28;-3.00;99.90
18229;DHT22;9239;50.932;3.142;2022-12-13T02:41:04;-3.00;99.90
18229;DHT22;9239;50.932;3.142;2022-12-13T02:43:37;-3.00;99.90
18229;DHT22;9239;50.932;3.142;2022-12-13T02:46:07;-3.00;99.90
18229;DHT22;9239;50.932;3.142;2022-12-13T02:48:38;-3.00;99.90
18229;DHT22;9239;50.932;3.142;2022-12-13T02:51:08;-3.10;99.90
18229;DHT22;9239;50.932;3.142;2022-12-13T02:53:36;-3.10;99.90
18229;DHT22;9239;50.932;3.142;2022-12-13T02:56:04;-3.00;99.90
18229;DHT22;9239;50.932;3.142;2022-12-13T02:58:34;-3.00;99.90
18229;DHT22;9239;50.932;3.142;2022-12-13T03:01:18;-2.90;99.90
18229;DHT22;9239;50.932;3.142;2022-12-13T03:03:50;-2.80;99.90
18229;DHT22;9239;50.932;3.142;2022-12-13T03:06:28;-2.80;99.90
18229;DHT22;9239;50.932;3.142;2022-12-13T03:09:09;-2.80;99.90
18229;DHT22;9239;50.932;3.142;2022-12-13T03:11:52;-2.80;99.90
18229;DHT22;9239;50.932;3.142;2022-12-13T03:14:50;-2.80;99.90
18229;DHT22;9239;50.932;3.142;2022-12-13T03:17:25;-2.80;99.90
18229;DHT22;9239;50.932;3.142;2022-12-13T03:19:52;-2.80;99.90
18229;DHT22;9239;50.932;3.142;2022-12-13T03:22:19;-2.80;99.90
18229;DHT22;9239;50.932;3.142;2022-12-13T03:24:46;-2.80;99.90
18229;DHT22;9239;50.932;3.142;2022-12-13T03:27:14;-2.80;99.90
18229;DHT22;9239;50.932;3.142;2022-12-13T03:29:41;-2.80;99.90
18229;DHT22;9239;50.932;3.142;2022-12-13T03:32:08;-2.80;99.90
18229;DHT22;9239;50.932;3.142;2022-12-13T03:34:36;-2.90;99.90
18229;DHT22;9239;50.932;3.142;2022-12-13T03:37:03;-2.90;99.90
18229;DHT22;9239;50.932;3.142;2022-12-13T03:39:30;-2.90;99.90
18229;DHT22;9239;50.932;3.142;2022-12-13T03:41:57;-2.90;99.90
18229;DHT22;9239;50.932;3.142;2022-12-13T03:44:24;-2.90;99.90
18229;DHT22;9239;50.932;3.142;2022-12-13T03:46:51;-2.90;99.90
18229;DHT22;9239;50.932;3.142;2022-12-13T03:49:18;-2.90;99.90
18229;DHT22;9239;50.932;3.142;2022-12-13T03:51:46;-2.90;99.90
18229;DHT22;9239;50.932;3.142;2022-12-13T03:54:13;-2.90;99.90
18229;DHT22;9239;50.932;3.142;2022-12-13T03:56:41;-2.90;99.90
18229;DHT22;9239;50.932;3.142;2022-12-13T03:59:08;-2.90;99.90
18229;DHT22;9239;50.932;3.142;2022-12-13T04:01:35;-2.90;99.90
18229;DHT22;9239;50.932;3.142;2022-12-13T04:04:02;-2.90;99.90
18229;DHT22;9239;50.932;3.142;2022-12-13T04:06:28;-2.80;99.90
18229;DHT22;9239;50.932;3.142;2022-12-13T04:08:57;-2.70;99.90
18229;DHT22;9239;50.932;3.142;2022-12-13T04:11:23;-2.70;99.90
18229;DHT22;9239;50.932;3.142;2022-12-13T04:14:08;-2.60;99.90
18229;DHT22;9239;50.932;3.142;2022-12-13T04:16:35;-2.60;99.90
18229;DHT22;9239;50.932;3.142;2022-12-13T04:19:01;-2.70;99.90
18229;DHT22;9239;50.932;3.142;2022-12-13T04:21:28;-2.70;99.90
18229;DHT22;9239;50.932;3.142;2022-12-13T04:23:56;-2.70;99.90
18229;DHT22;9239;50.932;3.142;2022-12-13T04:26:23;-2.80;99.90
18229;DHT22;9239;50.932;3.142;2022-12-13T04:28:50;-2.70;99.90
18229;DHT22;9239;50.932;3.142;2022-12-13T04:31:17;-2.70;99.90
18229;DHT22;9239;50.932;3.142;2022-12-13T04:33:44;-2.70;99.90
18229;DHT22;9239;50.932;3.142;2022-12-13T04:36:11;-2.60;99.90
18229;DHT22;9239;50.932;3.142;2022-12-13T04:38:44;-2.60;99.90
18229;DHT22;9239;50.932;3.142;2022-12-13T04:41:15;-2.50;99.90
18229;DHT22;9239;50.932;3.142;2022-12-13T04:43:42;-2.50;99.90
18229;DHT22;9239;50.932;3.142;2022-12-13T04:46:09;-2.50;99.90
18229;DHT22;9239;50.932;3.142;2022-12-13T04:48:36;-2.50;99.90
18229;DHT22;9239;50.932;3.142;2022-12-13T04:51:03;-2.60;99.90
18229;DHT22;9239;50.932;3.142;2022-12-13T04:53:30;-2.70;99.90
18229;DHT22;9239;50.932;3.142;2022-12-13T04:55:57;-2.80;99.90
18229;DHT22;9239;50.932;3.142;2022-12-13T04:58:25;-2.90;99.90
18229;DHT22;9239;50.932;3.142;2022-12-13T05:00:54;-2.90;99.90
18229;DHT22;9239;50.932;3.142;2022-12-13T05:03:21;-2.90;99.90
18229;DHT22;9239;50.932;3.142;2022-12-13T05:05:47;-3.00;99.90
18229;DHT22;9239;50.932;3.142;2022-12-13T05:08:14;-3.00;99.90
18229;DHT22;9239;50.932;3.142;2022-12-13T05:10:41;-3.10;99.90
18229;DHT22;9239;50.932;3.142;2022-12-13T05:13:08;-3.10;99.90
18229;DHT22;9239;50.932;3.142;2022-12-13T05:15:36;-3.10;99.90
18229;DHT22;9239;50.932;3.142;2022-12-13T05:18:05;-3.10;99.90
18229;DHT22;9239;50.932;3.142;2022-12-13T05:20:33;-3.20;99.90
18229;DHT22;9239;50.932;3.142;2022-12-13T05:23:00;-3.20;99.90
18229;DHT22;9239;50.932;3.142;2022-12-13T05:25:27;-3.20;99.90
18229;DHT22;9239;50.932;3.142;2022-12-13T05:27:55;-3.30;99.90
18229;DHT22;9239;50.932;3.142;2022-12-13T05:30:22;-3.30;99.90
18229;DHT22;9239;50.932;3.142;2022-12-13T05:32:51;-3.20;99.90
18229;DHT22;9239;50.932;3.142;2022-12-13T05:35:17;-3.20;99.90
18229;DHT22;9239;50.932;3.142;2022-12-13T05:37:45;-3.10;99.90
18229;DHT22;9239;50.932;3.142;2022-12-13T05:40:12;-3.00;99.90
18229;DHT22;9239;50.932;3.142;2022-12-13T05:42:39;-3.00;99.90
18229;DHT22;9239;50.932;3.142;2022-12-13T05:45:07;-3.00;99.90
18229;DHT22;9239;50.932;3.142;2022-12-13T05:47:34;-3.00;99.90
18229;DHT22;9239;50.932;3.142;2022-12-13T05:50:03;-2.90;99.90
18229;DHT22;9239;50.932;3.142;2022-12-13T05:52:30;-2.90;99.90
18229;DHT22;9239;50.932;3.142;2022-12-13T05:54:57;-2.90;99.90
18229;DHT22;9239;50.932;3.142;2022-12-13T05:57:24;-2.90;99.90
18229;DHT22;9239;50.932;3.142;2022-12-13T05:59:51;-2.90;99.90
18229;DHT22;9239;50.932;3.142;2022-12-13T06:02:18;-2.90;99.90
18229;DHT22;9239;50.932;3.142;2022-12-13T06:04:45;-2.90;99.90
18229;DHT22;9239;50.932;3.142;2022-12-13T06:07:13;-3.00;99.90
18229;DHT22;9239;50.932;3.142;2022-12-13T06:09:40;-3.00;99.90
18229;DHT22;9239;50.932;3.142;2022-12-13T06:12:08;-3.10;99.90
18229;DHT22;9239;50.932;3.142;2022-12-13T06:14:35;-3.10;99.90
18229;DHT22;9239;50.932;3.142;2022-12-13T06:17:02;-3.10;99.90
18229;DHT22;9239;50.932;3.142;2022-12-13T06:19:29;-3.10;99.90
18229;DHT22;9239;50.932;3.142;2022-12-13T06:21:56;-3.10;99.90
18229;DHT22;9239;50.932;3.142;2022-12-13T06:24:25;-3.10;99.90
18229;DHT22;9239;50.932;3.142;2022-12-13T06:26:52;-3.00;99.90
18229;DHT22;9239;50.932;3.142;2022-12-13T06:29:21;-3.00;99.90
18229;DHT22;9239;50.932;3.142;2022-12-13T06:31:54;-3.00;99.90
18229;DHT22;9239;50.932;3.142;2022-12-13T06:34:21;-3.00;99.90
18229;DHT22;9239;50.932;3.142;2022-12-13T06:36:48;-3.10;99.90
18229;DHT22;9239;50.932;3.142;2022-12-13T06:39:15;-3.10;99.90
18229;DHT22;9239;50.932;3.142;2022-12-13T06:41:44;-3.10;99.90
18229;DHT22;9239;50.932;3.142;2022-12-13T06:44:11;-3.10;99.90
18229;DHT22;9239;50.932;3.142;2022-12-13T06:46:38;-3.10;99.90
18229;DHT22;9239;50.932;3.142;2022-12-13T06:49:04;-3.20;99.90
18229;DHT22;9239;50.932;3.142;2022-12-13T06:51:32;-3.20;99.90
18229;DHT22;9239;50.932;3.142;2022-12-13T06:53:59;-3.10;99.90
18229;DHT22;9239;50.932;3.142;2022-12-13T06:56:27;-3.10;99.90
18229;DHT22;9239;50.932;3.142;2022-12-13T06:58:56;-2.80;99.90
18229;DHT22;9239;50.932;3.142;2022-12-13T07:01:23;-2.80;99.90
18229;DHT22;9239;50.932;3.142;2022-12-13T07:03:50;-2.80;99.90
18229;DHT22;9239;50.932;3.142;2022-12-13T07:06:18;-2.80;99.90
18229;DHT22;9239;50.932;3.142;2022-12-13T07:08:48;-3.00;99.90
18229;DHT22;9239;50.932;3.142;2022-12-13T07:11:18;-3.00;99.90
18229;DHT22;9239;50.932;3.142;2022-12-13T07:13:45;-3.10;99.90
18229;DHT22;9239;50.932;3.142;2022-12-13T07:16:13;-3.00;99.90
18229;DHT22;9239;50.932;3.142;2022-12-13T07:18:40;-3.00;99.90
18229;DHT22;9239;50.932;3.142;2022-12-13T07:21:09;-2.90;99.90
18229;DHT22;9239;50.932;3.142;2022-12-13T07:23:37;-3.00;99.90
18229;DHT22;9239;50.932;3.142;2022-12-13T07:26:04;-3.00;99.90
18229;DHT22;9239;50.932;3.142;2022-12-13T07:28:32;-3.00;99.90
18229;DHT22;9239;50.932;3.142;2022-12-13T07:30:59;-3.00;99.90
18229;DHT22;9239;50.932;3.142;2022-12-13T07:33:28;-3.00;99.90
18229;DHT22;9239;50.932;3.142;2022-12-13T07:35:59;-3.00;99.90
18229;DHT22;9239;50.932;3.142;2022-12-13T07:38:27;-2.90;99.90
18229;DHT22;9239;50.932;3.142;2022-12-13T07:40:55;-2.90;99.90
18229;DHT22;9239;50.932;3.142;2022-12-13T07:43:23;-2.80;99.90
18229;DHT22;9239;50.932;3.142;2022-12-13T07:45:50;-2.80;99.90
18229;DHT22;9239;50.932;3.142;2022-12-13T07:48:18;-2.80;99.90
18229;DHT22;9239;50.932;3.142;2022-12-13T07:50:46;-2.70;99.90
18229;DHT22;9239;50.932;3.142;2022-12-13T07:53:13;-2.80;99.90
18229;DHT22;9239;50.932;3.142;2022-12-13T07:55:40;-2.80;99.90
18229;DHT22;9239;50.932;3.142;2022-12-13T07:58:09;-2.80;99.90
18229;DHT22;9239;50.932;3.142;2022-12-13T08:00:36;-2.80;99.90
18229;DHT22;9239;50.932;3.142;2022-12-13T08:03:04;-2.70;99.90
18229;DHT22;9239;50.932;3.142;2022-12-13T08:05:31;-2.70;99.90
18229;DHT22;9239;50.932;3.142;2022-12-13T08:08:00;-2.70;99.90
18229;DHT22;9239;50.932;3.142;2022-12-13T08:10:27;-2.70;99.90
18229;DHT22;9239;50.932;3.142;2022-12-13T08:12:54;-2.70;99.90
18229;DHT22;9239;50.932;3.142;2022-12-13T08:15:21;-2.60;99.90
18229;DHT22;9239;50.932;3.142;2022-12-13T08:17:49;-2.60;99.90
18229;DHT22;9239;50.932;3.142;2022-12-13T08:20:16;-2.50;99.90
18229;DHT22;9239;50.932;3.142;2022-12-13T08:22:44;-2.50;99.90
18229;DHT22;9239;50.932;3.142;2022-12-13T08:25:12;-2.40;99.90
18229;DHT22;9239;50.932;3.142;2022-12-13T08:27:39;-2.30;99.90
18229;DHT22;9239;50.932;3.142;2022-12-13T08:30:07;-2.20;99.90
18229;DHT22;9239;50.932;3.142;2022-12-13T08:32:34;-2.20;99.90
18229;DHT22;9239;50.932;3.142;2022-12-13T08:35:01;-2.30;99.90
18229;DHT22;9239;50.932;3.142;2022-12-13T08:37:28;-2.30;99.90
18229;DHT22;9239;50.932;3.142;2022-12-13T08:39:55;-2.20;99.90
18229;DHT22;9239;50.932;3.142;2022-12-13T08:42:23;-2.10;99.90
18229;DHT22;9239;50.932;3.142;2022-12-13T08:44:51;-2.10;99.90
18229;DHT22;9239;50.932;3.142;2022-12-13T08:47:19;-2.00;99.90
18229;DHT22;9239;50.932;3.142;2022-12-13T08:49:47;-1.90;99.90
18229;DHT22;9239;50.932;3.142;2022-12-13T08:52:13;-1.80;99.90
18229;DHT22;9239;50.932;3.142;2022-12-13T08:54:40;-1.80;99.90
18229;DHT22;9239;50.932;3.142;2022-12-13T08:57:08;-1.70;99.90
18229;DHT22;9239;50.932;3.142;2022-12-13T08:59:37;-1.60;99.90
18229;DHT22;9239;50.932;3.142;2022-12-13T09:02:03;-1.50;99.90
18229;DHT22;9239;50.932;3.142;2022-12-13T09:04:30;-1.30;99.90
18229;DHT22;9239;50.932;3.142;2022-12-13T09:06:57;-1.20;99.90
18229;DHT22;9239;50.932;3.142;2022-12-13T09:09:26;-1.20;99.90
18229;DHT22;9239;50.932;3.142;2022-12-13T09:11:53;-1.10;99.90
18229;DHT22;9239;50.932;3.142;2022-12-13T09:14:20;-0.90;99.90
18229;DHT22;9239;50.932;3.142;2022-12-13T09:16:48;-0.90;99.90
18229;DHT22;9239;50.932;3.142;2022-12-13T09:19:15;-0.90;99.90
18229;DHT22;9239;50.932;3.142;2022-12-13T09:21:42;-0.80;99.90
18229;DHT22;9239;50.932;3.142;2022-12-13T09:24:08;-0.70;99.90
18229;DHT22;9239;50.932;3.142;2022-12-13T09:26:35;-0.60;99.90
18229;DHT22;9239;50.932;3.142;2022-12-13T09:29:02;-0.60;99.90
18229;DHT22;9239;50.932;3.142;2022-12-13T09:31:29;-0.60;99.90
18229;DHT22;9239;50.932;3.142;2022-12-13T09:34:00;-0.60;99.90
18229;DHT22;9239;50.932;3.142;2022-12-13T09:36:27;-0.60;99.90
18229;DHT22;9239;50.932;3.142;2022-12-13T09:38:54;-0.60;99.90
18229;DHT22;9239;50.932;3.142;2022-12-13T09:41:27;-0.50;99.90
18229;DHT22;9239;50.932;3.142;2022-12-13T09:43:56;-0.60;99.90
18229;DHT22;9239;50.932;3.142;2022-12-13T09:46:27;-0.60;99.90
18229;DHT22;9239;50.932;3.142;2022-12-13T09:48:55;-0.60;99.90
18229;DHT22;9239;50.932;3.142;2022-12-13T09:51:24;-0.60;99.90
18229;DHT22;9239;50.932;3.142;2022-12-13T09:53:52;-0.60;99.90
18229;DHT22;9239;50.932;3.142;2022-12-13T09:56:21;-0.60;99.90
18229;DHT22;9239;50.932;3.142;2022-12-13T09:58:50;-0.60;99.90
18229;DHT22;9239;50.932;3.142;2022-12-13T10:01:17;-0.50;99.90
18229;DHT22;9239;50.932;3.142;2022-12-13T10:03:47;-0.50;99.90
18229;DHT22;9239;50.932;3.142;2022-12-13T10:06:17;-0.40;99.90
18229;DHT22;9239;50.932;3.142;2022-12-13T10:08:47;-0.40;99.90
18229;DHT22;9239;50.932;3.142;2022-12-13T10:11:16;-0.40;99.90
18229;DHT22;9239;50.932;3.142;2022-12-13T10:13:47;-0.40;99.90
18229;DHT22;9239;50.932;3.142;2022-12-13T10:16:19;-0.50;99.90
18229;DHT22;9239;50.932;3.142;2022-12-13T10:18:50;-0.40;99.90
18229;DHT22;9239;50.932;3.142;2022-12-13T10:21:19;-0.50;99.90
18229;DHT22;9239;50.932;3.142;2022-12-13T10:23:49;-0.50;99.90
18229;DHT22;9239;50.932;3.142;2022-12-13T10:26:16;-0.50;99.90
18229;DHT22;9239;50.932;3.142;2022-12-13T10:28:43;-0.50;99.90
18229;DHT22;9239;50.932;3.142;2022-12-13T10:31:15;-0.40;99.90
18229;DHT22;9239;50.932;3.142;2022-12-13T10:33:51;-0.40;99.90
18229;DHT22;9239;50.932;3.142;2022-12-13T10:36:31;-0.30;99.90
18229;DHT22;9239;50.932;3.142;2022-12-13T10:39:00;-0.30;99.90
18229;DHT22;9239;50.932;3.142;2022-12-13T10:41:33;-0.30;99.90
18229;DHT22;9239;50.932;3.142;2022-12-13T10:44:12;-0.10;99.90
18229;DHT22;9239;50.932;3.142;2022-12-13T10:46:42;0.00;99.90
18229;DHT22;9239;50.932;3.142;2022-12-13T10:49:16;0.00;99.90
18229;DHT22;9239;50.932;3.142;2022-12-13T10:51:43;0.10;99.90
18229;DHT22;9239;50.932;3.142;2022-12-13T10:54:15;0.10;99.90
18229;DHT22;9239;50.932;3.142;2022-12-13T10:56:46;0.20;99.90
18229;DHT22;9239;50.932;3.142;2022-12-13T10:59:25;0.30;99.90
18229;DHT22;9239;50.932;3.142;2022-12-13T11:01:53;0.30;99.90
18229;DHT22;9239;50.932;3.142;2022-12-13T11:04:23;0.30;99.90
18229;DHT22;9239;50.932;3.142;2022-12-13T11:06:52;0.40;99.90
18229;DHT22;9239;50.932;3.142;2022-12-13T11:09:26;0.50;99.90
18229;DHT22;9239;50.932;3.142;2022-12-13T11:11:56;0.60;99.90
18229;DHT22;9239;50.932;3.142;2022-12-13T11:14:25;0.60;99.90
18229;DHT22;9239;50.932;3.142;2022-12-13T11:16:55;0.60;99.90
18229;DHT22;9239;50.932;3.142;2022-12-13T11:19:26;0.70;99.90
18229;DHT22;9239;50.932;3.142;2022-12-13T11:21:58;0.70;99.90
18229;DHT22;9239;50.932;3.142;2022-12-13T11:24:29;0.60;99.90
18229;DHT22;9239;50.932;3.142;2022-12-13T11:26:59;0.70;99.90
18229;DHT22;9239;50.932;3.142;2022-12-13T11:29:43;0.60;99.90
18229;DHT22;9239;50.932;3.142;2022-12-13T11:32:19;0.60;99.90
18229;DHT22;9239;50.932;3.142;2022-12-13T11:34:53;0.70;99.90
18229;DHT22;9239;50.932;3.142;2022-12-13T11:37:27;0.80;99.90
18229;DHT22;9239;50.932;3.142;2022-12-13T11:40:01;0.90;99.90
18229;DHT22;9239;50.932;3.142;2022-12-13T11:42:32;1.00;99.90
18229;DHT22;9239;50.932;3.142;2022-12-13T11:45:06;1.00;99.90
18229;DHT22;9239;50.932;3.142;2022-12-13T11:47:41;0.90;99.90
18229;DHT22;9239;50.932;3.142;2022-12-13T11:50:14;1.00;99.90
18229;DHT22;9239;50.932;3.142;2022-12-13T11:52:45;1.10;99.90
18229;DHT22;9239;50.932;3.142;2022-12-13T11:55:19;1.00;99.90
18229;DHT22;9239;50.932;3.142;2022-12-13T11:57:53;1.00;99.90
18229;DHT22;9239;50.932;3.142;2022-12-13T12:00:30;1.00;99.90
18229;DHT22;9239;50.932;3.142;2022-12-13T12:03:05;1.00;99.90
18229;DHT22;9239;50.932;3.142;2022-12-13T12:05:36;1.00;99.90
18229;DHT22;9239;50.932;3.142;2022-12-13T12:08:08;1.10;99.90
18229;DHT22;9239;50.932;3.142;2022-12-13T12:10:41;1.10;99.90
18229;DHT22;9239;50.932;3.142;2022-12-13T12:13:12;1.10;99.90
18229;DHT22;9239;50.932;3.142;2022-12-13T12:15:44;1.20;99.90
18229;DHT22;9239;50.932;3.142;2022-12-13T12:18:13;1.20;99.90
18229;DHT22;9239;50.932;3.142;2022-12-13T12:20:50;1.30;99.90
18229;DHT22;9239;50.932;3.142;2022-12-13T12:23:30;1.40;99.90
18229;DHT22;9239;50.932;3.142;2022-12-13T12:26:06;1.30;99.90
18229;DHT22;9239;50.932;3.142;2022-12-13T12:28:55;1.30;99.90
18229;DHT22;9239;50.932;3.142;2022-12-13T12:31:29;1.20;99.90
18229;DHT22;9239;50.932;3.142;2022-12-13T12:34:05;1.30;99.90
18229;DHT22;9239;50.932;3.142;2022-12-13T12:36:58;1.20;99.90
18229;DHT22;9239;50.932;3.142;2022-12-13T12:39:33;1.20;99.90
18229;DHT22;9239;50.932;3.142;2022-12-13T12:45:08;1.40;99.90
18229;DHT22;9239;50.932;3.142;2022-12-13T12:47:43;1.40;99.90
18229;DHT22;9239;50.932;3.142;2022-12-13T12:50:26;1.40;99.90
18229;DHT22;9239;50.932;3.142;2022-12-13T12:53:02;1.50;99.90
18229;DHT22;9239;50.932;3.142;2022-12-13T12:55:42;1.40;99.90
18229;DHT22;9239;50.932;3.142;2022-12-13T12:58:22;1.40;99.90
18229;DHT22;9239;50.932;3.142;2022-12-13T13:01:03;1.40;99.90
18229;DHT22;9239;50.932;3.142;2022-12-13T13:03:35;1.50;99.90
18229;DHT22;9239;50.932;3.142;2022-12-13T13:06:08;1.40;99.90
18229;DHT22;9239;50.932;3.142;2022-12-13T13:08:40;1.30;99.90
18229;DHT22;9239;50.932;3.142;2022-12-13T13:11:08;1.20;99.90
18229;DHT22;9239;50.932;3.142;2022-12-13T13:13:44;1.20;99.90
18229;DHT22;9239;50.932;3.142;2022-12-13T13:16:30;1.20;99.90
18229;DHT22;9239;50.932;3.142;2022-12-13T13:18:58;1.20;99.90
18229;DHT22;9239;50.932;3.142;2022-12-13T13:21:34;1.30;99.90
18229;DHT22;9239;50.932;3.142;2022-12-13T13:24:22;1.30;99.90
18229;DHT22;9239;50.932;3.142;2022-12-13T13:26:52;1.30;99.90
18229;DHT22;9239;50.932;3.142;2022-12-13T13:32:27;1.30;99.90
18229;DHT22;9239;50.932;3.142;2022-12-13T13:37:56;1.30;99.90
18229;DHT22;9239;50.932;3.142;2022-12-13T13:40:28;1.30;99.90
18229;DHT22;9239;50.932;3.142;2022-12-13T13:45:57;1.30;99.90
18229;DHT22;9239;50.932;3.142;2022-12-13T13:48:49;1.30;99.90
18229;DHT22;9239;50.932;3.142;2022-12-13T13:51:46;1.30;99.90
18229;DHT22;9239;50.932;3.142;2022-12-13T13:54:44;1.30;99.90
18229;DHT22;9239;50.932;3.142;2022-12-13T14:00:50;1.20;99.90
18229;DHT22;9239;50.932;3.142;2022-12-13T14:03:54;1.10;99.90
18229;DHT22;9239;50.932;3.142;2022-12-13T14:13:06;1.10;99.90
18229;DHT22;9239;50.932;3.142;2022-12-13T14:16:01;1.10;99.90
18229;DHT22;9239;50.932;3.142;2022-12-13T14:22:08;1.00;99.90
18229;DHT22;9239;50.932;3.142;2022-12-13T14:24:46;1.00;99.90
18229;DHT22;9239;50.932;3.142;2022-12-13T14:27:22;1.10;99.90
18229;DHT22;9239;50.932;3.142;2022-12-13T14:29:52;1.10;99.90
18229;DHT22;9239;50.932;3.142;2022-12-13T14:32:23;1.10;99.90
18229;DHT22;9239;50.932;3.142;2022-12-13T14:34:51;1.10;99.90
18229;DHT22;9239;50.932;3.142;2022-12-13T14:37:24;1.10;99.90
18229;DHT22;9239;50.932;3.142;2022-12-13T14:39:52;1.10;99.90
18229;DHT22;9239;50.932;3.142;2022-12-13T14:42:22;1.10;99.90
18229;DHT22;9239;50.932;3.142;2022-12-13T14:44:50;1.20;99.90
18229;DHT22;9239;50.932;3.142;2022-12-13T14:47:18;1.10;99.90
18229;DHT22;9239;50.932;3.142;2022-12-13T14:49:49;1.00;99.90
18229;DHT22;9239;50.932;3.142;2022-12-13T14:52:20;0.80;99.90
18229;DHT22;9239;50.932;3.142;2022-12-13T14:54:49;0.70;99.90
18229;DHT22;9239;50.932;3.142;2022-12-13T14:57:19;0.80;99.90
18229;DHT22;9239;50.932;3.142;2022-12-13T14:59:47;0.70;99.90
18229;DHT22;9239;50.932;3.142;2022-12-13T15:02:16;0.60;99.90
18229;DHT22;9239;50.932;3.142;2022-12-13T15:04:43;0.70;99.90
18229;DHT22;9239;50.932;3.142;2022-12-13T15:07:21;0.70;99.90
18229;DHT22;9239;50.932;3.142;2022-12-13T15:09:53;0.80;99.90
18229;DHT22;9239;50.932;3.142;2022-12-13T15:12:21;0.80;99.90
18229;DHT22;9239;50.932;3.142;2022-12-13T15:14:51;0.80;99.90
18229;DHT22;9239;50.932;3.142;2022-12-13T15:17:28;0.70;99.90
18229;DHT22;9239;50.932;3.142;2022-12-13T15:19:56;0.60;99.90
18229;DHT22;9239;50.932;3.142;2022-12-13T15:22:23;0.60;99.90
18229;DHT22;9239;50.932;3.142;2022-12-13T15:24:51;0.50;99.90
18229;DHT22;9239;50.932;3.142;2022-12-13T15:27:20;0.50;99.90
18229;DHT22;9239;50.932;3.142;2022-12-13T15:29:49;0.50;99.90
18229;DHT22;9239;50.932;3.142;2022-12-13T15:32:19;0.50;99.90
18229;DHT22;9239;50.932;3.142;2022-12-13T15:34:48;0.40;99.90
18229;DHT22;9239;50.932;3.142;2022-12-13T15:37:21;0.40;99.90
18229;DHT22;9239;50.932;3.142;2022-12-13T15:39:48;0.40;99.90
18229;DHT22;9239;50.932;3.142;2022-12-13T15:42:19;0.40;99.90
18229;DHT22;9239;50.932;3.142;2022-12-13T15:44:49;0.30;99.90
18229;DHT22;9239;50.932;3.142;2022-12-13T15:47:19;0.40;99.90
18229;DHT22;9239;50.932;3.142;2022-12-13T15:49:50;0.40;99.90
18229;DHT22;9239;50.932;3.142;2022-12-13T15:52:32;0.40;99.90
18229;DHT22;9239;50.932;3.142;2022-12-13T15:55:20;0.30;99.90
18229;DHT22;9239;50.932;3.142;2022-12-13T15:57:51;0.30;99.90
18229;DHT22;9239;50.932;3.142;2022-12-13T16:00:21;0.30;99.90
18229;DHT22;9239;50.932;3.142;2022-12-13T16:02:52;0.30;99.90
18229;DHT22;9239;50.932;3.142;2022-12-13T16:05:25;0.30;99.90
18229;DHT22;9239;50.932;3.142;2022-12-13T16:07:53;0.30;99.90
18229;DHT22;9239;50.932;3.142;2022-12-13T16:10:21;0.30;99.90
18229;DHT22;9239;50.932;3.142;2022-12-13T16:12:51;0.30;99.90
18229;DHT22;9239;50.932;3.142;2022-12-13T16:15:20;0.20;99.90
18229;DHT22;9239;50.932;3.142;2022-12-13T16:17:49;0.30;99.90
18229;DHT22;9239;50.932;3.142;2022-12-13T16:20:17;0.30;99.90
18229;DHT22;9239;50.932;3.142;2022-12-13T16:22:45;0.20;99.90
18229;DHT22;9239;50.932;3.142;2022-12-13T16:25:14;0.20;99.90
18229;DHT22;9239;50.932;3.142;2022-12-13T16:27:42;0.20;99.90
18229;DHT22;9239;50.932;3.142;2022-12-13T16:30:15;0.20;99.90
18229;DHT22;9239;50.932;3.142;2022-12-13T16:32:47;0.20;99.90
18229;DHT22;9239;50.932;3.142;2022-12-13T16:35:14;0.10;99.90
18229;DHT22;9239;50.932;3.142;2022-12-13T16:37:41;0.10;99.90